createdAt,value
2023-04-29T00:00:48.495Z,42.41
2023-04-29T00:01:48.510Z,42.42
2023-04-29T00:02:48.550Z,42.40
2023-04-29T00:03:48.485Z,42.40
2023-04-29T00:04:48.649Z,42.40
2023-04-29T00:05:48.821Z,42.37
2023-04-29T00:06:48.414Z,42.39
2023-04-29T00:07:48.451Z,42.36
2023-04-29T00:08:48.465Z,42.35
2023-04-29T00:09:48.476Z,42.35
2023-04-29T00:10:48.472Z,42.35
2023-04-29T00:11:48.469Z,42.35
2023-04-29T00:12:48.471Z,42.33
2023-04-29T00:13:48.465Z,42.32
2023-04-29T00:14:48.490Z,42.32
2023-04-29T00:15:48.475Z,42.31
2023-04-29T00:16:48.537Z,42.31
2023-04-29T00:17:48.545Z,42.31
2023-04-29T00:18:48.510Z,42.30
2023-04-29T00:19:48.584Z,42.29
2023-04-29T00:20:48.993Z,42.26
2023-04-29T00:21:48.536Z,42.25
2023-04-29T00:22:48.565Z,42.28
2023-04-29T00:23:48.574Z,42.28
2023-04-29T00:24:48.576Z,42.24
2023-04-29T00:25:48.724Z,42.22
2023-04-29T00:26:48.585Z,42.22
2023-04-29T00:27:48.584Z,42.24
2023-04-29T00:28:48.609Z,42.24
2023-04-29T00:29:48.607Z,42.22
2023-04-29T00:30:48.682Z,42.23
2023-04-29T00:31:48.668Z,42.20
2023-04-29T00:32:48.675Z,42.20
2023-04-29T00:33:48.675Z,42.15
2023-04-29T00:34:48.703Z,42.20
2023-04-29T00:35:48.689Z,42.16
2023-04-29T00:36:49.000Z,42.18
2023-04-29T00:37:48.741Z,42.17
2023-04-29T00:38:48.753Z,42.16
2023-04-29T00:39:48.742Z,42.17
2023-04-29T00:40:48.751Z,42.14
2023-04-29T00:41:49.032Z,42.14
2023-04-29T00:42:48.784Z,42.14
2023-04-29T00:43:48.799Z,42.12
2023-04-29T00:44:48.829Z,42.09
2023-04-29T00:45:48.881Z,42.12
2023-04-29T00:46:48.967Z,42.12
2023-04-29T00:47:48.916Z,42.12
2023-04-29T00:48:48.876Z,42.08
2023-04-29T00:49:48.916Z,42.10
2023-04-29T00:50:48.912Z,42.05
2023-04-29T00:51:48.970Z,42.09
2023-04-29T00:52:48.962Z,42.04
2023-04-29T00:53:49.686Z,42.04
2023-04-29T00:54:49.032Z,42.05
2023-04-29T00:55:49.036Z,42.05
2023-04-29T00:56:49.052Z,42.02
2023-04-29T00:57:49.109Z,42.03
2023-04-29T00:58:49.058Z,42.01
2023-04-29T00:59:49.091Z,42.03
2023-04-29T01:00:49.079Z,42.02
2023-04-29T01:01:49.088Z,42.01
2023-04-29T01:02:49.169Z,41.98
2023-04-29T01:03:49.286Z,41.98
2023-04-29T01:04:49.191Z,41.98
2023-04-29T01:05:49.168Z,41.97
2023-04-29T01:06:49.162Z,41.95
2023-04-29T01:07:49.184Z,41.96
2023-04-29T01:08:49.173Z,41.94
2023-04-29T01:09:49.243Z,41.95
2023-04-29T01:10:49.222Z,41.95
2023-04-29T01:11:49.214Z,41.94
2023-04-29T01:12:49.270Z,41.92
2023-04-29T01:13:49.286Z,41.94
2023-04-29T01:14:49.300Z,41.91
2023-04-29T01:15:49.374Z,41.92
2023-04-29T01:16:49.321Z,41.91
2023-04-29T01:17:49.410Z,41.90
2023-04-29T01:18:49.366Z,41.91
2023-04-29T01:19:49.424Z,41.91
2023-04-29T01:20:49.378Z,41.88
2023-04-29T01:21:49.458Z,41.87
2023-04-29T01:22:49.436Z,41.87
2023-04-29T01:23:49.474Z,41.88
2023-04-29T01:24:49.474Z,41.86
2023-04-29T01:25:49.483Z,41.86
2023-04-29T01:26:49.569Z,41.86
2023-04-29T01:27:49.530Z,41.83
2023-04-29T01:28:49.544Z,41.83
2023-04-29T01:29:49.627Z,41.84
2023-04-29T01:30:49.578Z,41.80
2023-04-29T01:31:49.713Z,41.79
2023-04-29T01:32:49.660Z,41.81
2023-04-29T01:33:49.674Z,41.81
2023-04-29T01:34:49.669Z,41.79
2023-04-29T01:35:49.735Z,41.79
2023-04-29T01:36:49.736Z,41.78
2023-04-29T01:37:49.757Z,41.80
2023-04-29T01:38:49.750Z,41.78
2023-04-29T01:39:49.869Z,41.79
2023-04-29T01:40:49.883Z,41.79
2023-04-29T01:41:49.891Z,41.76
2023-04-29T01:42:49.857Z,41.77
2023-04-29T01:43:49.879Z,41.79
2023-04-29T01:44:49.898Z,41.74
2023-04-29T01:45:49.939Z,41.76
2023-04-29T01:46:50.023Z,41.75
2023-04-29T01:47:49.999Z,41.74
2023-04-29T01:48:50.025Z,41.73
2023-04-29T01:49:50.079Z,41.71
2023-04-29T01:50:50.083Z,41.71
2023-04-29T01:51:50.151Z,41.70
2023-04-29T01:52:50.075Z,41.71
2023-04-29T01:53:50.105Z,41.70
2023-04-29T01:54:50.138Z,41.68
2023-04-29T01:55:50.129Z,41.68
2023-04-29T01:56:50.180Z,41.69
2023-04-29T01:57:50.202Z,41.67
2023-04-29T01:58:50.234Z,41.66
2023-04-29T01:59:50.333Z,41.68
2023-04-29T02:00:50.403Z,41.68
2023-04-29T02:01:50.331Z,41.66
2023-04-29T02:02:50.415Z,41.64
2023-04-29T02:03:50.515Z,41.65
2023-04-29T02:04:50.430Z,41.65
2023-04-29T02:05:50.502Z,41.64
2023-04-29T02:06:50.412Z,41.63
2023-04-29T02:07:50.433Z,41.63
2023-04-29T02:08:50.488Z,41.64
2023-04-29T02:09:50.809Z,41.63
2023-04-29T02:10:50.610Z,41.61
2023-04-29T02:11:50.567Z,41.60
2023-04-29T02:12:50.606Z,41.60
2023-04-29T02:13:50.632Z,41.58
2023-04-29T02:14:50.652Z,41.58
2023-04-29T02:15:50.736Z,41.55
2023-04-29T02:16:50.907Z,41.55
2023-04-29T02:17:50.776Z,41.56
2023-04-29T02:18:50.789Z,41.55
2023-04-29T02:19:51.042Z,41.57
2023-04-29T02:20:50.875Z,41.56
2023-04-29T02:21:50.875Z,41.54
2023-04-29T02:22:50.886Z,41.57
2023-04-29T02:23:50.921Z,41.55
2023-04-29T02:24:50.951Z,41.55
2023-04-29T02:25:51.023Z,41.55
2023-04-29T02:26:51.024Z,41.51
2023-04-29T02:27:51.068Z,41.54
2023-04-29T02:28:51.111Z,41.50
2023-04-29T02:29:51.270Z,41.53
2023-04-29T02:30:51.145Z,41.53
2023-04-29T02:31:51.240Z,41.51
2023-04-29T02:32:51.230Z,41.51
2023-04-29T02:33:51.259Z,41.50
2023-04-29T02:34:51.236Z,41.49
2023-04-29T02:35:51.259Z,41.49
2023-04-29T02:36:51.285Z,41.47
2023-04-29T02:37:51.403Z,41.49
2023-04-29T02:38:51.350Z,41.47
2023-04-29T02:39:51.607Z,41.46
2023-04-29T02:40:51.417Z,41.48
2023-04-29T02:41:51.466Z,41.45
2023-04-29T02:42:51.488Z,41.42
2023-04-29T02:43:51.508Z,41.43
2023-04-29T02:44:51.566Z,41.44
2023-04-29T02:45:51.571Z,41.46
2023-04-29T02:46:51.611Z,41.44
2023-04-29T02:47:51.680Z,41.44
2023-04-29T02:48:51.697Z,41.46
2023-04-29T02:49:51.839Z,41.41
2023-04-29T02:50:51.762Z,41.41
2023-04-29T02:51:51.735Z,41.39
2023-04-29T02:52:51.748Z,41.41
2023-04-29T02:53:51.779Z,41.42
2023-04-29T02:54:51.826Z,41.40
2023-04-29T02:55:51.883Z,41.39
2023-04-29T02:56:51.907Z,41.40
2023-04-29T02:57:51.900Z,41.41
2023-04-29T02:58:51.964Z,41.38
2023-04-29T02:59:52.255Z,41.39
2023-04-29T03:00:52.029Z,41.37
2023-04-29T03:01:52.053Z,41.37
2023-04-29T03:02:52.175Z,41.37
2023-04-29T03:03:52.405Z,41.35
2023-04-29T03:04:52.145Z,41.38
2023-04-29T03:05:52.162Z,41.36
2023-04-29T03:06:52.577Z,41.36
2023-04-29T03:07:52.227Z,41.33
2023-04-29T03:08:52.262Z,41.33
2023-04-29T03:09:52.492Z,41.32
2023-04-29T03:10:52.356Z,41.30
2023-04-29T03:11:52.572Z,41.35
2023-04-29T03:12:52.400Z,41.35
2023-04-29T03:13:52.432Z,41.29
2023-04-29T03:14:52.459Z,41.31
2023-04-29T03:15:52.482Z,41.32
2023-04-29T03:16:52.660Z,41.31
2023-04-29T03:17:52.568Z,41.31
2023-04-29T03:18:52.590Z,41.31
2023-04-29T03:19:52.908Z,41.31
2023-04-29T03:20:52.618Z,41.29
2023-04-29T03:21:54.024Z,41.29
2023-04-29T03:22:52.718Z,41.29
2023-04-29T03:23:52.713Z,41.25
2023-04-29T03:24:52.748Z,41.26
2023-04-29T03:25:52.804Z,41.27
2023-04-29T03:26:52.825Z,41.29
2023-04-29T03:27:52.872Z,41.27
2023-04-29T03:28:52.923Z,41.26
2023-04-29T03:29:53.174Z,41.27
2023-04-29T03:30:53.010Z,41.22
2023-04-29T03:31:53.049Z,41.24
2023-04-29T03:32:53.109Z,41.25
2023-04-29T03:33:53.060Z,41.23
2023-04-29T03:34:53.111Z,41.25
2023-04-29T03:35:53.133Z,41.25
2023-04-29T03:36:53.186Z,41.23
2023-04-29T03:37:53.195Z,41.23
2023-04-29T03:38:53.236Z,41.22
2023-04-29T03:39:53.804Z,41.22
2023-04-29T03:40:53.301Z,41.23
2023-04-29T03:41:53.345Z,41.21
2023-04-29T03:42:53.339Z,41.21
2023-04-29T03:43:53.384Z,41.21
2023-04-29T03:44:53.435Z,41.23
2023-04-29T03:45:53.523Z,41.21
2023-04-29T03:46:53.547Z,41.23
2023-04-29T03:47:53.607Z,41.21
2023-04-29T03:48:54.566Z,41.18
2023-04-29T03:49:53.920Z,41.22
2023-04-29T03:50:53.661Z,41.19
2023-04-29T03:51:53.707Z,41.19
2023-04-29T03:52:53.734Z,41.19
2023-04-29T03:53:53.767Z,41.19
2023-04-29T03:54:53.823Z,41.17
2023-04-29T03:55:53.848Z,41.19
2023-04-29T03:56:54.674Z,41.17
2023-04-29T03:57:53.935Z,41.19
2023-04-29T03:58:53.938Z,41.17
2023-04-29T03:59:54.168Z,41.17
2023-04-29T04:00:54.056Z,41.16
2023-04-29T04:01:54.255Z,41.13
2023-04-29T04:02:54.256Z,41.15
2023-04-29T04:03:54.238Z,41.15
2023-04-29T04:04:54.191Z,41.13
2023-04-29T04:05:54.249Z,41.14
2023-04-29T04:06:54.318Z,41.16
2023-04-29T04:07:54.287Z,41.14
2023-04-29T04:08:54.341Z,41.13
2023-04-29T04:09:54.804Z,41.10
2023-04-29T04:10:54.452Z,41.11
2023-04-29T04:11:54.443Z,41.12
2023-04-29T04:12:54.476Z,41.14
2023-04-29T04:13:54.549Z,41.10
2023-04-29T04:14:54.585Z,41.12
2023-04-29T04:15:54.641Z,41.10
2023-04-29T04:16:54.649Z,41.09
2023-04-29T04:17:54.691Z,41.11
2023-04-29T04:18:54.752Z,41.10
2023-04-29T04:19:54.844Z,41.08
2023-04-29T04:20:54.780Z,41.09
2023-04-29T04:21:55.045Z,41.09
2023-04-29T04:22:54.886Z,41.09
2023-04-29T04:23:54.903Z,41.08
2023-04-29T04:24:54.959Z,41.07
2023-04-29T04:25:54.994Z,41.07
2023-04-29T04:26:55.076Z,41.06
2023-04-29T04:27:55.067Z,41.07
2023-04-29T04:28:55.083Z,41.07
2023-04-29T04:29:55.117Z,41.05
2023-04-29T04:30:55.160Z,41.04
2023-04-29T04:31:55.596Z,41.05
2023-04-29T04:32:55.246Z,41.05
2023-04-29T04:33:55.283Z,41.03
2023-04-29T04:34:55.292Z,41.04
2023-04-29T04:35:55.357Z,41.02
2023-04-29T04:36:55.582Z,41.03
2023-04-29T04:37:55.450Z,41.02
2023-04-29T04:38:55.464Z,41.02
2023-04-29T04:39:55.481Z,41.03
2023-04-29T04:40:55.540Z,41.04
2023-04-29T04:41:55.585Z,41.00
2023-04-29T04:42:55.632Z,41.00
2023-04-29T04:43:55.662Z,41.01
2023-04-29T04:44:55.728Z,41.00
2023-04-29T04:45:55.817Z,41.00
2023-04-29T04:46:56.097Z,40.98
2023-04-29T04:47:55.898Z,41.00
2023-04-29T04:48:55.908Z,40.97
2023-04-29T04:49:56.089Z,40.98
2023-04-29T04:50:55.964Z,40.98
2023-04-29T04:51:56.097Z,40.99
2023-04-29T04:52:56.050Z,40.96
2023-04-29T04:53:56.189Z,40.97
2023-04-29T04:54:56.127Z,40.95
2023-04-29T04:55:56.184Z,40.98
2023-04-29T04:56:56.225Z,40.97
2023-04-29T04:57:56.232Z,40.98
2023-04-29T04:58:56.249Z,40.96
2023-04-29T04:59:56.326Z,40.96
2023-04-29T05:00:56.369Z,40.96
2023-04-29T05:01:56.629Z,40.94
2023-04-29T05:02:56.539Z,40.95
2023-04-29T05:03:56.569Z,40.95
2023-04-29T05:04:56.544Z,40.94
2023-04-29T05:05:56.553Z,40.94
2023-04-29T05:06:56.641Z,40.94
2023-04-29T05:07:56.635Z,40.93
2023-04-29T05:08:56.658Z,40.92
2023-04-29T05:09:56.765Z,40.92
2023-04-29T05:10:56.755Z,40.91
2023-04-29T05:11:56.807Z,40.95
2023-04-29T05:12:57.066Z,40.94
2023-04-29T05:13:56.862Z,40.93
2023-04-29T05:14:56.965Z,40.93
2023-04-29T05:15:56.982Z,40.91
2023-04-29T05:16:57.120Z,40.92
2023-04-29T05:17:57.156Z,40.93
2023-04-29T05:18:57.138Z,40.92
2023-04-29T05:19:57.139Z,40.92
2023-04-29T05:20:57.194Z,40.89
2023-04-29T05:21:57.225Z,40.89
2023-04-29T05:22:57.266Z,40.90
2023-04-29T05:23:57.338Z,40.88
2023-04-29T05:24:57.409Z,40.92
2023-04-29T05:25:57.437Z,40.88
2023-04-29T05:26:57.508Z,40.90
2023-04-29T05:27:57.592Z,40.90
2023-04-29T05:28:57.542Z,40.87
2023-04-29T05:29:57.615Z,40.88
2023-04-29T05:30:57.668Z,40.87
2023-04-29T05:31:57.671Z,40.91
2023-04-29T05:32:57.817Z,40.87
2023-04-29T05:33:57.755Z,40.89
2023-04-29T05:34:57.790Z,40.84
2023-04-29T05:35:57.834Z,40.88
2023-04-29T05:36:57.887Z,40.88
2023-04-29T05:37:58.088Z,40.88
2023-04-29T05:38:57.973Z,40.88
2023-04-29T05:39:58.050Z,40.83
2023-04-29T05:40:58.091Z,40.86
2023-04-29T05:41:58.124Z,40.87
2023-04-29T05:42:58.163Z,40.85
2023-04-29T05:43:58.226Z,40.84
2023-04-29T05:44:58.240Z,40.86
2023-04-29T05:45:58.394Z,40.85
2023-04-29T05:46:58.364Z,40.85
2023-04-29T05:47:58.600Z,40.86
2023-04-29T05:48:58.395Z,40.86
2023-04-29T05:49:58.486Z,40.83
2023-04-29T05:50:58.485Z,40.85
2023-04-29T05:51:58.567Z,40.83
2023-04-29T05:52:58.580Z,40.82
2023-04-29T05:53:58.650Z,40.85
2023-04-29T05:54:58.675Z,40.82
2023-04-29T05:55:58.696Z,40.82
2023-04-29T05:56:58.747Z,40.82
2023-04-29T05:57:59.093Z,40.83
2023-04-29T05:58:58.806Z,40.81
2023-04-29T05:59:58.877Z,40.80
2023-04-29T06:01:00.109Z,40.80
2023-04-29T06:01:58.949Z,40.80
2023-04-29T06:02:59.519Z,40.79
2023-04-29T06:03:59.265Z,40.81
2023-04-29T06:04:59.306Z,40.78
2023-04-29T06:05:59.303Z,40.80
2023-04-29T06:06:59.142Z,40.81
2023-04-29T06:07:59.237Z,40.78
2023-04-29T06:08:59.282Z,40.79
2023-04-29T06:09:59.280Z,40.78
2023-04-29T06:10:59.314Z,40.77
2023-04-29T06:11:59.395Z,40.75
2023-04-29T06:12:59.444Z,40.78
2023-04-29T06:13:59.485Z,40.73
2023-04-29T06:14:59.506Z,40.79
2023-04-29T06:15:59.594Z,40.73
2023-04-29T06:16:59.567Z,40.73
2023-04-29T06:17:59.695Z,40.74
2023-04-29T06:18:59.639Z,40.76
2023-04-29T06:19:59.677Z,40.73
2023-04-29T06:20:59.733Z,40.72
2023-04-29T06:21:59.762Z,40.73
2023-04-29T06:22:59.852Z,40.73
2023-04-29T06:23:59.855Z,40.75
2023-04-29T06:24:59.917Z,40.70
2023-04-29T06:25:59.965Z,40.70
2023-04-29T06:26:59.995Z,40.68
2023-04-29T06:28:00.162Z,40.72
2023-04-29T06:29:00.081Z,40.70
2023-04-29T06:30:00.133Z,40.71
2023-04-29T06:31:00.150Z,40.71
2023-04-29T06:32:00.348Z,40.68
2023-04-29T06:33:00.655Z,40.69
2023-04-29T06:34:00.260Z,40.69
2023-04-29T06:35:00.318Z,40.67
2023-04-29T06:36:00.370Z,40.69
2023-04-29T06:37:00.412Z,40.67
2023-04-29T06:38:00.500Z,40.67
2023-04-29T06:39:00.520Z,40.68
2023-04-29T06:40:00.538Z,40.67
2023-04-29T06:41:00.585Z,40.65
2023-04-29T06:42:00.642Z,40.65
2023-04-29T06:43:00.656Z,40.67
2023-04-29T06:44:00.719Z,40.64
2023-04-29T06:45:00.748Z,40.62
2023-04-29T06:46:00.786Z,40.63
2023-04-29T06:47:00.833Z,40.62
2023-04-29T06:48:01.146Z,40.60
2023-04-29T06:49:00.922Z,40.59
2023-04-29T06:50:00.965Z,40.60
2023-04-29T06:51:00.996Z,40.54
2023-04-29T06:52:01.053Z,40.51
2023-04-29T06:53:01.072Z,40.52
2023-04-29T06:54:01.127Z,40.48
2023-04-29T06:55:01.163Z,40.50
2023-04-29T06:56:01.208Z,40.47
2023-04-29T06:57:01.242Z,40.46
2023-04-29T06:58:01.624Z,40.50
2023-04-29T06:59:01.301Z,40.46
2023-04-29T07:00:01.380Z,40.47
2023-04-29T07:01:01.465Z,40.47
2023-04-29T07:02:01.453Z,40.46
2023-04-29T07:03:01.844Z,40.46
2023-04-29T07:04:01.544Z,40.46
2023-04-29T07:05:01.558Z,40.43
2023-04-29T07:06:01.588Z,40.43
2023-04-29T07:07:01.619Z,40.45
2023-04-29T07:08:01.708Z,40.45
2023-04-29T07:09:01.679Z,40.48
2023-04-29T07:10:01.727Z,40.42
2023-04-29T07:11:01.782Z,40.45
2023-04-29T07:12:01.788Z,40.42
2023-04-29T07:13:01.840Z,40.43
2023-04-29T07:14:01.879Z,40.43
2023-04-29T07:15:01.915Z,40.40
2023-04-29T07:16:01.961Z,40.40
2023-04-29T07:17:02.058Z,40.39
2023-04-29T07:18:02.060Z,40.39
2023-04-29T07:19:02.071Z,40.39
2023-04-29T07:20:02.094Z,40.38
2023-04-29T07:21:02.160Z,40.40
2023-04-29T07:22:02.191Z,40.40
2023-04-29T07:23:02.638Z,40.38
2023-04-29T07:24:02.317Z,40.40
2023-04-29T07:25:02.296Z,40.37
2023-04-29T07:26:02.337Z,40.39
2023-04-29T07:27:02.397Z,40.37
2023-04-29T07:28:02.620Z,40.39
2023-04-29T07:29:02.435Z,40.40
2023-04-29T07:30:02.510Z,40.35
2023-04-29T07:31:02.559Z,40.40
2023-04-29T07:32:02.550Z,40.37
2023-04-29T07:33:02.676Z,40.37
2023-04-29T07:34:02.672Z,40.39
2023-04-29T07:35:02.723Z,40.38
2023-04-29T07:36:02.727Z,40.36
2023-04-29T07:37:02.774Z,40.35
2023-04-29T07:38:02.816Z,40.37
2023-04-29T07:39:02.848Z,40.35
2023-04-29T07:40:02.868Z,40.38
2023-04-29T07:41:02.896Z,40.37
2023-04-29T07:42:02.947Z,40.35
2023-04-29T07:43:02.943Z,40.34
2023-04-29T07:44:02.974Z,40.36
2023-04-29T07:45:03.046Z,40.33
2023-04-29T07:46:03.095Z,40.35
2023-04-29T07:47:03.110Z,40.35
2023-04-29T07:48:03.167Z,40.33
2023-04-29T07:49:03.196Z,40.35
2023-04-29T07:50:03.246Z,40.33
2023-04-29T07:51:03.280Z,40.33
2023-04-29T07:52:03.301Z,40.29
2023-04-29T07:53:03.641Z,40.29
2023-04-29T07:54:03.525Z,40.28
2023-04-29T07:55:03.394Z,40.29
2023-04-29T07:56:03.413Z,40.29
2023-04-29T07:57:03.485Z,40.28
2023-04-29T07:58:03.626Z,40.29
2023-04-29T07:59:03.521Z,40.26
2023-04-29T08:00:03.604Z,40.27
2023-04-29T08:01:03.619Z,40.26
2023-04-29T08:02:03.649Z,40.21
2023-04-29T08:03:03.832Z,40.23
2023-04-29T08:04:03.980Z,40.26
2023-04-29T08:05:04.652Z,40.25
2023-04-29T08:06:03.822Z,40.25
2023-04-29T08:07:03.866Z,40.24
2023-04-29T08:08:04.422Z,40.24
2023-04-29T08:09:04.298Z,40.24
2023-04-29T08:10:03.939Z,40.22
2023-04-29T08:11:03.967Z,40.23
2023-04-29T08:12:04.045Z,40.22
2023-04-29T08:13:04.102Z,40.20
2023-04-29T08:14:04.092Z,40.19
2023-04-29T08:15:04.984Z,40.20
2023-04-29T08:16:04.221Z,40.21
2023-04-29T08:17:04.210Z,40.20
2023-04-29T08:18:04.292Z,40.19
2023-04-29T08:19:04.236Z,40.19
2023-04-29T08:20:04.264Z,40.20
2023-04-29T08:21:04.289Z,40.18
2023-04-29T08:22:04.381Z,40.15
2023-04-29T08:23:04.384Z,40.16
2023-04-29T08:24:04.411Z,40.16
2023-04-29T08:25:04.417Z,40.18
2023-04-29T08:26:04.486Z,40.17
2023-04-29T08:27:04.511Z,40.14
2023-04-29T08:28:04.629Z,40.14
2023-04-29T08:29:04.543Z,40.16
2023-04-29T08:30:04.628Z,40.16
2023-04-29T08:31:04.637Z,40.16
2023-04-29T08:32:04.761Z,40.14
2023-04-29T08:33:04.737Z,40.17
2023-04-29T08:34:04.744Z,40.14
2023-04-29T08:35:04.785Z,40.13
2023-04-29T08:36:04.788Z,40.15
2023-04-29T08:37:04.801Z,40.13
2023-04-29T08:38:04.880Z,40.15
2023-04-29T08:39:04.894Z,40.15
2023-04-29T08:40:04.933Z,40.17
2023-04-29T08:41:04.963Z,40.15
2023-04-29T08:42:04.966Z,40.11
2023-04-29T08:43:04.995Z,40.11
2023-04-29T08:44:05.059Z,40.10
2023-04-29T08:45:05.098Z,40.12
2023-04-29T08:46:05.117Z,40.12
2023-04-29T08:47:05.143Z,40.11
2023-04-29T08:48:05.715Z,40.12
2023-04-29T08:49:05.209Z,40.13
2023-04-29T08:50:05.350Z,40.12
2023-04-29T08:51:05.297Z,40.12
2023-04-29T08:52:05.307Z,40.12
2023-04-29T08:53:05.638Z,40.10
2023-04-29T08:54:05.354Z,40.12
2023-04-29T08:55:05.378Z,40.11
2023-04-29T08:56:05.426Z,40.09
2023-04-29T08:57:05.460Z,40.10
2023-04-29T08:58:05.640Z,40.09
2023-04-29T08:59:05.557Z,40.10
2023-04-29T09:00:05.573Z,40.08
2023-04-29T09:01:05.625Z,40.10
2023-04-29T09:02:05.619Z,40.12
2023-04-29T09:03:05.725Z,40.08
2023-04-29T09:04:05.874Z,40.08
2023-04-29T09:05:05.864Z,40.10
2023-04-29T09:06:05.751Z,40.11
2023-04-29T09:07:05.817Z,40.09
2023-04-29T09:08:06.168Z,40.09
2023-04-29T09:09:05.868Z,40.09
2023-04-29T09:10:05.920Z,40.11
2023-04-29T09:11:05.917Z,40.12
2023-04-29T09:12:05.964Z,40.08
2023-04-29T09:13:05.965Z,40.08
2023-04-29T09:14:06.015Z,40.11
2023-04-29T09:15:06.041Z,40.09
2023-04-29T09:16:06.137Z,40.07
2023-04-29T09:17:06.086Z,40.10
2023-04-29T09:18:06.228Z,40.07
2023-04-29T09:19:06.165Z,40.08
2023-04-29T09:20:06.182Z,40.08
2023-04-29T09:21:06.224Z,40.04
2023-04-29T09:22:06.271Z,40.05
2023-04-29T09:23:06.678Z,40.04
2023-04-29T09:24:06.273Z,40.03
2023-04-29T09:25:06.337Z,40.04
2023-04-29T09:26:06.526Z,40.05
2023-04-29T09:27:06.389Z,40.05
2023-04-29T09:28:06.453Z,40.04
2023-04-29T09:29:06.505Z,40.01
2023-04-29T09:30:06.466Z,40.04
2023-04-29T09:31:06.682Z,40.03
2023-04-29T09:32:06.670Z,40.04
2023-04-29T09:33:06.584Z,40.02
2023-04-29T09:34:06.612Z,40.03
2023-04-29T09:35:06.652Z,40.02
2023-04-29T09:36:06.630Z,40.03
2023-04-29T09:37:06.673Z,40.04
2023-04-29T09:38:06.754Z,40.02
2023-04-29T09:39:06.754Z,40.02
2023-04-29T09:40:06.811Z,40.02
2023-04-29T09:41:06.790Z,40.02
2023-04-29T09:42:06.801Z,40.02
2023-04-29T09:43:06.867Z,39.99
2023-04-29T09:44:06.911Z,39.99
2023-04-29T09:45:06.914Z,40.02
2023-04-29T09:46:07.003Z,39.99
2023-04-29T09:47:07.000Z,39.99
2023-04-29T09:48:07.299Z,39.98
2023-04-29T09:49:07.007Z,39.98
2023-04-29T09:50:07.087Z,39.98
2023-04-29T09:51:07.076Z,39.98
2023-04-29T09:52:07.126Z,39.99
2023-04-29T09:53:07.140Z,39.95
2023-04-29T09:54:07.172Z,39.97
2023-04-29T09:55:07.188Z,39.94
2023-04-29T09:56:07.210Z,39.95
2023-04-29T09:57:07.268Z,39.95
2023-04-29T09:58:07.264Z,39.96
2023-04-29T09:59:07.313Z,39.94
2023-04-29T10:00:07.323Z,39.92
2023-04-29T10:01:07.492Z,39.93
2023-04-29T10:02:07.348Z,39.95
2023-04-29T10:03:07.465Z,39.93
2023-04-29T10:04:07.481Z,39.94
2023-04-29T10:05:07.459Z,39.94
2023-04-29T10:06:07.488Z,39.92
2023-04-29T10:07:07.502Z,39.94
2023-04-29T10:08:07.513Z,39.93
2023-04-29T10:09:07.559Z,39.91
2023-04-29T10:10:07.538Z,39.92
2023-04-29T10:11:07.612Z,39.93
2023-04-29T10:12:07.614Z,39.96
2023-04-29T10:13:07.651Z,39.90
2023-04-29T10:14:07.648Z,39.91
2023-04-29T10:15:07.685Z,39.88
2023-04-29T10:16:08.416Z,39.89
2023-04-29T10:17:07.706Z,39.91
2023-04-29T10:18:07.796Z,39.91
2023-04-29T10:19:07.790Z,39.89
2023-04-29T10:20:07.805Z,39.89
2023-04-29T10:21:07.815Z,39.91
2023-04-29T10:22:07.855Z,39.84
2023-04-29T10:23:08.205Z,39.88
2023-04-29T10:24:07.887Z,39.86
2023-04-29T10:25:07.966Z,39.85
2023-04-29T10:26:07.963Z,39.84
2023-04-29T10:27:07.978Z,39.87
2023-04-29T10:28:08.033Z,39.86
2023-04-29T10:29:08.024Z,39.86
2023-04-29T10:30:08.061Z,39.85
2023-04-29T10:31:08.155Z,39.84
2023-04-29T10:32:08.135Z,39.85
2023-04-29T10:33:08.150Z,39.82
2023-04-29T10:34:08.173Z,39.84
2023-04-29T10:35:08.184Z,39.78
2023-04-29T10:36:08.255Z,39.81
2023-04-29T10:37:08.266Z,39.81
2023-04-29T10:38:08.271Z,39.81
2023-04-29T10:39:08.322Z,39.83
2023-04-29T10:40:08.321Z,39.80
2023-04-29T10:41:08.349Z,39.77
2023-04-29T10:42:08.400Z,39.77
2023-04-29T10:43:08.417Z,39.78
2023-04-29T10:44:08.443Z,39.79
2023-04-29T10:45:08.499Z,39.78
2023-04-29T10:46:08.520Z,39.78
2023-04-29T10:47:08.524Z,39.76
2023-04-29T10:48:08.692Z,39.77
2023-04-29T10:49:08.628Z,39.76
2023-04-29T10:50:08.623Z,39.74
2023-04-29T10:51:08.669Z,39.77
2023-04-29T10:52:08.708Z,39.73
2023-04-29T10:53:08.744Z,39.72
2023-04-29T10:54:08.761Z,39.73
2023-04-29T10:55:08.798Z,39.73
2023-04-29T10:56:08.833Z,39.72
2023-04-29T10:57:08.868Z,39.73
2023-04-29T10:58:08.928Z,39.71
2023-04-29T10:59:08.922Z,39.72
2023-04-29T11:00:09.010Z,39.73
2023-04-29T11:01:09.034Z,39.71
2023-04-29T11:02:09.068Z,39.71
2023-04-29T11:03:09.218Z,39.69
2023-04-29T11:04:09.206Z,39.72
2023-04-29T11:05:09.174Z,39.72
2023-04-29T11:06:09.200Z,39.70
2023-04-29T11:07:09.194Z,39.71
2023-04-29T11:08:09.278Z,39.68
2023-04-29T11:09:09.318Z,39.66
2023-04-29T11:10:09.358Z,39.67
2023-04-29T11:11:09.367Z,39.70
2023-04-29T11:12:09.413Z,39.68
2023-04-29T11:13:09.442Z,39.67
2023-04-29T11:14:09.562Z,39.68
2023-04-29T11:15:09.505Z,39.67
2023-04-29T11:16:09.559Z,39.68
2023-04-29T11:17:09.578Z,39.68
2023-04-29T11:18:09.682Z,39.67
2023-04-29T11:19:09.647Z,39.67
2023-04-29T11:20:09.679Z,39.67
2023-04-29T11:21:09.703Z,39.66
2023-04-29T11:22:09.749Z,39.68
2023-04-29T11:23:09.787Z,39.67
2023-04-29T11:24:09.818Z,39.66
2023-04-29T11:25:09.855Z,39.63
2023-04-29T11:26:09.873Z,39.62
2023-04-29T11:27:09.923Z,39.62
2023-04-29T11:28:10.186Z,39.61
2023-04-29T11:29:09.966Z,39.61
2023-04-29T11:30:10.034Z,39.63
2023-04-29T11:31:10.086Z,39.62
2023-04-29T11:32:10.208Z,39.62
2023-04-29T11:33:10.197Z,39.64
2023-04-29T11:34:10.221Z,39.64
2023-04-29T11:35:10.210Z,39.59
2023-04-29T11:36:10.250Z,39.61
2023-04-29T11:37:10.247Z,39.63
2023-04-29T11:38:10.404Z,39.60
2023-04-29T11:39:10.388Z,39.60
2023-04-29T11:40:10.369Z,39.59
2023-04-29T11:41:10.437Z,39.59
2023-04-29T11:42:10.440Z,39.59
2023-04-29T11:43:10.435Z,39.56
2023-04-29T11:44:10.478Z,39.58
2023-04-29T11:45:10.519Z,39.59
2023-04-29T11:46:10.562Z,39.57
2023-04-29T11:47:10.580Z,39.57
2023-04-29T11:48:10.685Z,39.58
2023-04-29T11:49:10.645Z,39.60
2023-04-29T11:50:10.718Z,39.56
2023-04-29T11:51:10.679Z,39.58
2023-04-29T11:52:10.766Z,39.58
2023-04-29T11:53:10.785Z,39.58
2023-04-29T11:54:10.872Z,39.57
2023-04-29T11:55:10.824Z,39.53
2023-04-29T11:56:10.873Z,39.56
2023-04-29T11:57:10.914Z,39.56
2023-04-29T11:58:10.922Z,39.55
2023-04-29T11:59:10.972Z,39.54
2023-04-29T12:00:11.007Z,39.52
2023-04-29T12:01:11.137Z,39.55
2023-04-29T12:02:11.061Z,39.54
2023-04-29T12:03:11.228Z,39.51
2023-04-29T12:04:11.338Z,39.50
2023-04-29T12:05:11.507Z,39.49
2023-04-29T12:06:11.145Z,39.51
2023-04-29T12:07:11.229Z,39.49
2023-04-29T12:08:11.232Z,39.50
2023-04-29T12:09:11.300Z,39.46
2023-04-29T12:10:11.618Z,39.46
2023-04-29T12:11:11.329Z,39.47
2023-04-29T12:12:11.372Z,39.42
2023-04-29T12:13:11.366Z,39.47
2023-04-29T12:14:11.754Z,39.47
2023-04-29T12:15:11.416Z,39.43
2023-04-29T12:16:11.514Z,39.41
2023-04-29T12:17:11.490Z,39.43
2023-04-29T12:18:11.566Z,39.44
2023-04-29T12:19:11.550Z,39.44
2023-04-29T12:20:11.580Z,39.45
2023-04-29T12:21:11.593Z,39.38
2023-04-29T12:22:11.595Z,39.38
2023-04-29T12:23:11.644Z,39.39
2023-04-29T12:24:11.631Z,39.38
2023-04-29T12:25:11.695Z,39.41
2023-04-29T12:26:11.712Z,39.38
2023-04-29T12:27:11.744Z,39.43
2023-04-29T12:28:11.739Z,39.42
2023-04-29T12:29:11.775Z,39.44
2023-04-29T12:30:11.800Z,39.43
2023-04-29T12:31:11.873Z,39.43
2023-04-29T12:32:11.845Z,39.40
2023-04-29T12:33:11.885Z,39.43
2023-04-29T12:34:11.910Z,39.42
2023-04-29T12:35:11.910Z,39.40
2023-04-29T12:36:11.923Z,39.42
2023-04-29T12:37:11.942Z,39.41
2023-04-29T12:38:11.971Z,39.36
2023-04-29T12:39:12.000Z,39.42
2023-04-29T12:40:12.023Z,39.40
2023-04-29T12:41:12.016Z,39.39
2023-04-29T12:42:12.035Z,39.38
2023-04-29T12:43:12.073Z,39.38
2023-04-29T12:44:12.152Z,39.36
2023-04-29T12:45:12.150Z,39.36
2023-04-29T12:46:12.184Z,39.35
2023-04-29T12:47:12.232Z,39.30
2023-04-29T12:48:22.198Z,39.35
2023-04-29T12:49:13.216Z,39.37
2023-04-29T12:50:12.170Z,39.34
2023-04-29T12:51:12.176Z,39.34
2023-04-29T12:52:12.159Z,39.31
2023-04-29T12:53:12.165Z,39.34